Time;durP1;ratioP1;P1;durP2;ratioP2;P2;SDS_P1;SDS_P2;PMS_P1;PMS_P2;Temp;Humidity;BMP_temperature;BMP_pressure;BME280_temperature;BME280_humidity;BME280_pressure;Samples;Min_cycle;Max_cycle;Signal;HPM_P1;HPM_P2
2021/03/21 00:01:15;;;;;;;5.57;4.10;;;-0.40;99.90;;;;;;5054174;28;20413;-71
2021/03/21 00:03:41;;;;;;;8.43;4.40;;;-0.40;99.90;;;;;;5034966;28;20189;-71
2021/03/21 00:06:06;;;;;;;7.20;4.10;;;-0.40;99.90;;;;;;5032907;28;20422;-71
2021/03/21 00:08:33;;;;;;;8.60;5.40;;;-0.40;99.90;;;;;;5033335;28;20229;-71
2021/03/21 00:11:02;;;;;;;9.77;4.67;;;-0.40;99.90;;;;;;5034408;28;20238;-71
2021/03/21 00:13:28;;;;;;;6.30;3.90;;;-0.40;99.90;;;;;;5018458;28;20477;-71
2021/03/21 00:15:55;;;;;;;8.53;5.67;;;-0.40;99.90;;;;;;5014261;28;20938;-71
2021/03/21 00:18:26;;;;;;;8.77;5.50;;;-0.40;99.90;;;;;;5040836;28;20438;-71
2021/03/21 00:20:52;;;;;;;6.07;4.30;;;-0.40;99.90;;;;;;5053947;28;20404;-71
2021/03/21 00:23:18;;;;;;;11.33;3.97;;;-0.40;99.90;;;;;;5051779;28;20499;-71
2021/03/21 00:25:44;;;;;;;6.30;5.30;;;-0.30;99.90;;;;;;5052821;28;20176;-71
2021/03/21 00:28:14;;;;;;;5.83;4.23;;;-0.40;99.90;;;;;;5051928;28;20513;-71
2021/03/21 00:30:43;;;;;;;8.17;4.40;;;-0.30;99.90;;;;;;5053819;28;20176;-71
2021/03/21 00:33:15;;;;;;;6.10;4.83;;;-0.30;99.90;;;;;;5040250;28;20470;-71
2021/03/21 00:35:41;;;;;;;5.80;4.17;;;-0.30;99.90;;;;;;5032500;28;20768;-71
2021/03/21 00:38:19;;;;;;;6.43;4.57;;;-0.30;99.90;;;;;;5032573;28;20433;-71
2021/03/21 00:40:45;;;;;;;9.67;5.33;;;-0.20;99.90;;;;;;5033789;28;20429;-71
2021/03/21 00:43:11;;;;;;;7.20;3.97;;;-0.30;99.90;;;;;;5031154;28;21031;-71
2021/03/21 00:45:37;;;;;;;7.47;4.90;;;-0.30;99.90;;;;;;5033411;28;20192;-71
2021/03/21 00:48:03;;;;;;;5.57;4.50;;;-0.30;99.90;;;;;;5032035;28;20952;-71
2021/03/21 00:50:33;;;;;;;8.30;5.20;;;-0.30;99.90;;;;;;5033349;28;20190;-71
2021/03/21 00:52:59;;;;;;;7.77;4.80;;;-0.30;99.90;;;;;;5032480;28;20524;-71
2021/03/21 00:55:25;;;;;;;10.37;4.60;;;-0.30;99.90;;;;;;5031906;28;20554;-70
2021/03/21 00:57:51;;;;;;;5.50;4.00;;;-0.30;99.90;;;;;;5030262;28;20915;-71
2021/03/21 01:00:29;;;;;;;7.07;4.33;;;-0.20;99.90;;;;;;5031804;28;20506;-71
2021/03/21 01:02:55;;;;;;;6.07;3.73;;;-0.30;99.90;;;;;;5025422;28;20540;-71
2021/03/21 01:05:34;;;;;;;10.53;4.77;;;-0.30;99.90;;;;;;5013693;28;20435;-71
2021/03/21 01:08:00;;;;;;;5.97;4.40;;;-0.30;99.90;;;;;;5013854;28;20266;-71
2021/03/21 01:10:29;;;;;;;6.53;4.63;;;-0.30;99.90;;;;;;5013276;28;20429;-71
2021/03/21 01:12:57;;;;;;;10.17;5.07;;;-0.30;99.90;;;;;;5026135;28;20521;-71
2021/03/21 01:15:25;;;;;;;6.67;4.20;;;-0.30;99.90;;;;;;5051702;28;20404;-71
2021/03/21 01:17:52;;;;;;;9.43;4.43;;;-0.30;99.90;;;;;;5050821;28;20432;-70
2021/03/21 01:20:21;;;;;;;6.77;4.43;;;-0.30;99.90;;;;;;5052954;28;20434;-71
2021/03/21 01:22:48;;;;;;;8.97;5.30;;;-0.40;99.90;;;;;;5049945;28;20431;-71
2021/03/21 01:25:15;;;;;;;13.00;5.20;;;-0.30;99.90;;;;;;5052171;28;20413;-71
2021/03/21 01:27:40;;;;;;;5.53;3.97;;;-0.30;99.90;;;;;;5049638;28;20450;-71
2021/03/21 01:30:07;;;;;;;6.80;5.10;;;-0.30;99.90;;;;;;5050979;28;20449;-71
2021/03/21 01:32:33;;;;;;;8.00;4.77;;;-0.40;99.90;;;;;;5051090;28;20304;-71
2021/03/21 01:35:00;;;;;;;4.90;4.40;;;-0.40;99.90;;;;;;5052842;28;20436;-71
2021/03/21 01:37:25;;;;;;;7.13;4.20;;;-0.40;99.90;;;;;;5050607;28;20396;-71
2021/03/21 01:39:51;;;;;;;9.13;5.00;;;-0.40;99.90;;;;;;5031411;28;20480;-71
2021/03/21 01:42:17;;;;;;;7.33;4.43;;;-0.30;99.90;;;;;;5032026;28;20175;-71
2021/03/21 01:44:44;;;;;;;6.97;4.53;;;-0.40;99.90;;;;;;5052504;28;20165;-71
2021/03/21 01:47:42;;;;;;;7.63;4.53;;;-0.40;99.90;;;;;;5053076;28;20486;-71
2021/03/21 01:50:45;;;;;;;7.20;5.10;;;-0.40;99.90;;;;;;5008949;28;20463;-71
2021/03/21 01:53:12;;;;;;;8.60;4.50;;;-0.30;99.90;;;;;;5036612;28;20442;-71
2021/03/21 01:55:39;;;;;;;4.73;3.67;;;-0.30;99.90;;;;;;5013336;28;20401;-71
2021/03/21 01:58:05;;;;;;;8.63;4.90;;;-0.30;99.90;;;;;;5012798;28;20942;-71
2021/03/21 02:00:32;;;;;;;8.40;3.70;;;-0.30;99.90;;;;;;5013053;28;20411;-71
2021/03/21 02:02:57;;;;;;;5.97;3.70;;;-0.30;99.90;;;;;;5015620;28;20436;-71
2021/03/21 02:05:23;;;;;;;5.73;4.10;;;-0.30;99.90;;;;;;5013047;28;20418;-71
2021/03/21 02:08:14;;;;;;;7.00;4.87;;;-0.30;99.90;;;;;;5018970;28;20193;-71
2021/03/21 02:10:58;;;;;;;6.60;4.33;;;-0.20;99.90;;;;;;5052791;28;20762;-71
2021/03/21 02:13:33;;;;;;;7.23;5.13;;;-0.20;99.90;;;;;;5050413;28;20428;-71
2021/03/21 02:16:14;;;;;;;7.20;4.93;;;-0.20;99.90;;;;;;5052584;28;20381;-71
2021/03/21 02:19:08;;;;;;;4.73;3.17;;;-0.20;99.90;;;;;;5036204;28;20854;-71
2021/03/21 02:21:45;;;;;;;6.27;4.60;;;-0.20;99.90;;;;;;5009712;28;20421;-72
2021/03/21 02:24:11;;;;;;;6.60;3.73;;;-0.10;99.90;;;;;;5037389;28;20442;-72
2021/03/21 02:26:55;;;;;;;5.63;3.63;;;-0.10;99.90;;;;;;5032372;28;20415;-71
2021/03/21 02:29:28;;;;;;;6.83;3.13;;;-0.20;99.90;;;;;;5041358;28;20279;-72
2021/03/21 02:32:00;;;;;;;6.27;4.20;;;-0.20;99.90;;;;;;5052232;28;20396;-71
2021/03/21 02:34:49;;;;;;;7.00;4.40;;;-0.20;99.90;;;;;;5050401;28;20466;-71
2021/03/21 02:37:26;;;;;;;7.90;4.10;;;-0.20;99.90;;;;;;4983935;28;20514;-71
2021/03/21 02:39:57;;;;;;;5.27;4.00;;;-0.20;99.90;;;;;;5026235;28;20466;-71
2021/03/21 02:42:29;;;;;;;5.83;3.87;;;-0.20;99.90;;;;;;5032265;28;20409;-72
2021/03/21 02:45:20;;;;;;;8.17;4.53;;;-0.20;99.90;;;;;;5031320;28;20432;-71
2021/03/21 02:47:49;;;;;;;6.50;4.17;;;-0.20;99.90;;;;;;5032070;28;20454;-71
2021/03/21 02:50:26;;;;;;;4.83;3.83;;;-0.20;99.90;;;;;;5050301;28;21011;-70
2021/03/21 02:52:58;;;;;;;7.07;3.77;;;-0.20;99.90;;;;;;5016428;28;20727;-71
2021/03/21 02:55:33;;;;;;;5.30;4.30;;;-0.20;99.90;;;;;;5051159;28;20797;-72
2021/03/21 02:58:08;;;;;;;8.20;4.33;;;-0.10;99.90;;;;;;5054361;28;20492;-71
2021/03/21 03:00:41;;;;;;;6.40;3.90;;;-0.10;99.90;;;;;;5019835;28;20444;-72
2021/03/21 03:03:09;;;;;;;6.33;4.77;;;-0.20;99.90;;;;;;5015399;28;20433;-71
2021/03/21 03:05:41;;;;;;;6.27;4.37;;;-0.20;99.90;;;;;;5053333;28;20441;-71
2021/03/21 03:08:22;;;;;;;5.53;3.93;;;-0.10;99.90;;;;;;5055432;28;20432;-71
2021/03/21 03:10:53;;;;;;;5.27;3.87;;;-0.20;99.90;;;;;;5016125;28;20397;-71
2021/03/21 03:13:39;;;;;;;7.40;4.47;;;-0.20;99.90;;;;;;5015261;28;20380;-71
2021/03/21 03:16:23;;;;;;;6.30;3.80;;;-0.20;99.90;;;;;;5055399;28;20455;-71
2021/03/21 03:19:25;;;;;;;5.50;4.27;;;-0.20;99.90;;;;;;5053738;28;20785;-72
2021/03/21 03:22:08;;;;;;;6.40;3.70;;;-0.20;99.90;;;;;;5055506;28;20412;-71
2021/03/21 03:25:01;;;;;;;6.13;3.63;;;-0.20;99.90;;;;;;5051622;28;20426;-71
2021/03/21 03:27:44;;;;;;;5.10;4.30;;;-0.20;99.90;;;;;;5040913;28;20515;-71
2021/03/21 03:30:20;;;;;;;6.60;4.17;;;-0.10;99.90;;;;;;5024237;28;20458;-71
2021/03/21 03:32:46;;;;;;;5.33;3.63;;;-0.10;99.90;;;;;;5015700;28;20385;-71
2021/03/21 03:35:14;;;;;;;4.20;3.30;;;-0.10;99.90;;;;;;5015389;28;20506;-71
2021/03/21 03:37:40;;;;;;;6.73;4.23;;;-0.10;99.90;;;;;;5015223;28;20242;-71
2021/03/21 03:40:08;;;;;;;6.80;3.73;;;0.00;99.90;;;;;;5028251;28;20460;-71
2021/03/21 03:42:43;;;;;;;8.63;3.97;;;0.00;99.90;;;;;;5035018;28;20414;-71
2021/03/21 03:45:40;;;;;;;9.33;3.93;;;0.00;99.90;;;;;;5020565;28;20428;-71
2021/03/21 03:48:14;;;;;;;6.53;4.00;;;-0.10;99.90;;;;;;5015222;28;20439;-71
2021/03/21 03:50:47;;;;;;;8.43;4.07;;;-0.10;99.90;;;;;;5014925;28;20475;-71
2021/03/21 03:53:37;;;;;;;6.47;4.00;;;-0.10;99.90;;;;;;5014999;28;20407;-71
2021/03/21 03:56:10;;;;;;;7.00;3.93;;;-0.10;99.90;;;;;;5017563;28;20432;-71
2021/03/21 03:59:02;;;;;;;6.60;4.30;;;-0.10;99.90;;;;;;5033763;28;20428;-71
2021/03/21 04:01:45;;;;;;;3.80;3.13;;;-0.10;99.90;;;;;;5033362;28;20444;-71
2021/03/21 04:04:15;;;;;;;6.30;4.60;;;-0.10;99.90;;;;;;5033887;28;20436;-71
2021/03/21 04:06:54;;;;;;;6.00;4.23;;;-0.10;99.90;;;;;;5033435;28;20441;-70
2021/03/21 04:09:27;;;;;;;6.70;3.70;;;-0.10;99.90;;;;;;5033119;28;20461;-71
2021/03/21 04:12:01;;;;;;;6.53;4.30;;;-0.10;99.90;;;;;;5034390;28;20414;-71
2021/03/21 04:14:46;;;;;;;5.37;3.43;;;-0.10;99.90;;;;;;5039980;28;21045;-71
2021/03/21 04:17:42;;;;;;;5.93;3.93;;;-0.10;99.90;;;;;;5054386;28;20382;-71
2021/03/21 04:20:14;;;;;;;5.37;3.60;;;0.00;99.90;;;;;;5040319;28;20491;-71
2021/03/21 04:23:15;;;;;;;5.77;3.77;;;-0.10;99.90;;;;;;5034241;28;20415;-71
2021/03/21 04:25:47;;;;;;;5.03;3.90;;;-0.10;99.90;;;;;;5046379;28;20433;-71
2021/03/21 04:28:51;;;;;;;6.07;4.10;;;-0.10;99.90;;;;;;5053774;28;20467;-71
2021/03/21 04:31:19;;;;;;;5.63;4.10;;;-0.10;99.90;;;;;;5049844;28;20459;-71
2021/03/21 04:33:52;;;;;;;6.27;3.80;;;0.00;99.90;;;;;;5052752;28;20395;-71
2021/03/21 04:36:21;;;;;;;5.10;3.67;;;0.00;99.90;;;;;;5014592;28;20386;-71
2021/03/21 04:38:53;;;;;;;9.40;3.90;;;0.00;99.90;;;;;;5014025;28;20433;-71
2021/03/21 04:41:28;;;;;;;5.60;3.60;;;-0.10;99.90;;;;;;5014191;28;20420;-71
2021/03/21 04:44:29;;;;;;;5.93;4.00;;;-0.10;99.90;;;;;;5015538;28;20477;-71
2021/03/21 04:46:59;;;;;;;6.97;3.77;;;-0.10;99.90;;;;;;4973025;28;20487;-72
2021/03/21 04:49:24;;;;;;;6.23;3.53;;;-0.10;99.90;;;;;;5032454;28;20995;-71
2021/03/21 04:52:03;;;;;;;7.47;3.80;;;-0.10;99.90;;;;;;5033976;28;20424;-71
2021/03/21 04:54:35;;;;;;;4.10;3.70;;;-0.10;99.90;;;;;;5032978;28;20164;-71
2021/03/21 04:57:31;;;;;;;6.70;4.10;;;-0.10;99.90;;;;;;5034172;28;20403;-71
2021/03/21 04:59:58;;;;;;;4.00;2.90;;;-0.10;99.90;;;;;;5028362;28;20874;-71
2021/03/21 05:02:28;;;;;;;4.67;3.10;;;0.00;99.90;;;;;;5014349;28;20966;-71
2021/03/21 05:05:01;;;;;;;4.13;3.40;;;0.00;99.90;;;;;;5014492;28;20746;-71
2021/03/21 05:07:41;;;;;;;5.33;3.97;;;0.00;99.90;;;;;;5014052;28;20923;-71
2021/03/21 05:10:13;;;;;;;5.17;3.60;;;0.00;99.90;;;;;;5014181;28;20462;-71
2021/03/21 05:13:13;;;;;;;8.93;3.17;;;0.00;99.90;;;;;;5013766;28;20399;-71
2021/03/21 05:15:58;;;;;;;5.07;3.90;;;0.00;99.90;;;;;;5036168;28;20434;-71
2021/03/21 05:18:31;;;;;;;5.13;3.90;;;0.00;99.90;;;;;;5053270;28;20389;-71
2021/03/21 05:21:01;;;;;;;11.57;3.40;;;0.00;99.90;;;;;;5038094;28;20424;-71
2021/03/21 05:23:49;;;;;;;5.97;3.73;;;0.00;99.90;;;;;;5033568;28;20842;-71
2021/03/21 05:26:39;;;;;;;4.50;3.43;;;0.00;99.90;;;;;;5032597;28;20422;-70
2021/03/21 05:29:10;;;;;;;6.43;3.60;;;0.00;99.90;;;;;;5033384;28;20456;-70
2021/03/21 05:31:36;;;;;;;4.57;3.20;;;0.00;99.90;;;;;;5048253;28;20432;-71
2021/03/21 05:34:02;;;;;;;5.07;3.60;;;0.00;99.90;;;;;;5053070;28;20404;-70
2021/03/21 05:37:16;;;;;;;4.63;3.27;;;0.00;99.90;;;;;;5051103;28;20178;-70
2021/03/21 05:40:29;;;;;;;5.97;3.23;;;0.00;99.90;;;;;;5056410;23;20554;-76
2021/03/21 05:42:58;;;;;;;2.90;2.50;;;0.00;99.90;;;;;;5001672;28;20918;-73
2021/03/21 05:45:38;;;;;;;5.30;3.73;;;0.10;99.90;;;;;;5056704;28;20485;-73
2021/03/21 05:48:20;;;;;;;4.03;2.83;;;0.10;99.90;;;;;;5038601;28;20539;-73
2021/03/21 05:51:08;;;;;;;4.93;3.00;;;0.10;99.90;;;;;;5071215;28;20431;-73
2021/03/21 05:53:40;;;;;;;4.70;3.03;;;0.10;99.90;;;;;;5073166;28;20387;-73
2021/03/21 05:56:15;;;;;;;4.67;3.00;;;0.10;99.90;;;;;;5060236;28;20921;-73
2021/03/21 05:58:59;;;;;;;4.43;2.90;;;0.10;99.90;;;;;;5053064;28;20478;-74
2021/03/21 06:01:28;;;;;;;5.53;3.50;;;0.20;99.90;;;;;;5038716;28;20429;-73
2021/03/21 06:04:15;;;;;;;4.50;2.93;;;0.30;99.90;;;;;;5050333;28;20868;-71
2021/03/21 06:07:08;;;;;;;5.00;3.40;;;0.30;99.90;;;;;;5053020;28;20466;-71
2021/03/21 06:09:36;;;;;;;7.83;3.50;;;0.30;99.90;;;;;;5073308;28;20474;-74
2021/03/21 06:12:15;;;;;;;5.50;3.47;;;0.30;99.90;;;;;;5071272;28;20829;-73
2021/03/21 06:15:05;;;;;;;6.00;3.40;;;0.40;99.90;;;;;;5073244;28;20452;-71
2021/03/21 06:17:45;;;;;;;9.47;3.97;;;0.40;99.90;;;;;;5056608;28;20421;-71
2021/03/21 06:20:29;;;;;;;4.17;3.03;;;0.50;99.90;;;;;;5032914;28;20566;-73
2021/03/21 06:23:30;;;;;;;7.63;3.23;;;0.60;99.90;;;;;;5054140;28;20429;-71
2021/03/21 06:26:02;;;;;;;4.23;3.10;;;0.70;99.90;;;;;;5077191;28;20391;-71
2021/03/21 06:28:37;;;;;;;5.30;3.30;;;0.70;99.90;;;;;;5063865;28;20533;-74
2021/03/21 06:31:15;;;;;;;5.57;3.87;;;0.70;99.90;;;;;;5056743;28;20978;-73
2021/03/21 06:33:57;;;;;;;3.83;2.57;;;0.70;99.90;;;;;;5063986;28;20511;-71
2021/03/21 06:36:29;;;;;;;4.90;3.13;;;0.70;99.90;;;;;;5074553;28;20500;-74
2021/03/21 06:38:58;;;;;;;4.50;2.90;;;0.70;99.90;;;;;;5075083;28;20866;-72
2021/03/21 06:41:42;;;;;;;4.07;2.70;;;0.70;99.90;;;;;;5076673;28;20396;-71
2021/03/21 06:44:45;;;;;;;6.07;2.67;;;0.80;99.90;;;;;;5062617;28;20891;-72
2021/03/21 06:47:32;;;;;;;3.50;2.70;;;0.90;99.90;;;;;;5056344;28;20468;-72
2021/03/21 06:50:31;;;;;;;7.13;4.10;;;0.90;99.90;;;;;;5056371;28;20445;-72
2021/03/21 06:53:14;;;;;;;3.73;2.73;;;1.00;99.90;;;;;;5053410;28;20387;-72
2021/03/21 06:55:56;;;;;;;4.10;2.53;;;1.20;99.90;;;;;;5036463;28;20410;-73
2021/03/21 06:58:47;;;;;;;5.00;3.50;;;1.30;99.90;;;;;;5041639;28;20502;-72
2021/03/21 07:01:28;;;;;;;5.37;2.90;;;1.40;99.90;;;;;;5054820;28;20410;-71
2021/03/21 07:04:15;;;;;;;4.33;3.03;;;1.40;99.90;;;;;;5040591;28;20426;-72
2021/03/21 07:07:13;;;;;;;6.53;3.03;;;1.50;99.90;;;;;;5051341;28;20395;-72
2021/03/21 07:09:51;;;;;;;3.90;2.43;;;1.50;99.90;;;;;;5024833;28;20504;-72
2021/03/21 07:12:50;;;;;;;3.33;2.80;;;1.50;99.90;;;;;;5035830;28;20441;-73
2021/03/21 07:15:29;;;;;;;3.43;2.87;;;1.50;99.90;;;;;;5035864;28;20398;-73
2021/03/21 07:17:54;;;;;;;5.10;3.13;;;1.50;99.90;;;;;;5035416;28;20406;-73
2021/03/21 07:20:38;;;;;;;4.17;2.73;;;1.50;99.90;;;;;;5073790;28;20444;-73
2021/03/21 07:23:18;;;;;;;5.07;3.00;;;1.70;99.90;;;;;;5073511;28;20181;-73
2021/03/21 07:26:21;;;;;;;4.37;2.80;;;1.80;99.90;;;;;;5074241;28;20409;-73
2021/03/21 07:29:12;;;;;;;11.63;2.90;;;2.10;99.90;;;;;;5073697;28;20463;-74
2021/03/21 07:32:22;;;;;;;4.93;3.23;;;2.20;99.90;;;;;;5075818;28;20439;-71
2021/03/21 07:35:15;;;;;;;3.73;2.70;;;2.20;99.90;;;;;;5073403;28;20427;-71
2021/03/21 07:38:16;;;;;;;4.70;2.33;;;2.20;99.90;;;;;;5075563;28;20398;-71
2021/03/21 07:41:00;;;;;;;3.47;2.70;;;2.20;99.90;;;;;;4994523;28;20541;-71
2021/03/21 07:44:06;;;;;;;3.23;2.20;;;2.20;99.90;;;;;;5064193;28;20461;-72
2021/03/21 07:46:50;;;;;;;5.80;2.87;;;2.30;99.90;;;;;;5054264;28;20425;-78
2021/03/21 07:49:23;;;;;;;3.27;2.53;;;2.20;99.90;;;;;;5049507;28;20492;-70
2021/03/21 07:52:05;;;;;;;6.17;2.80;;;2.20;99.90;;;;;;5052354;28;20438;-75
2021/03/21 07:54:51;;;;;;;5.60;2.97;;;2.30;99.90;;;;;;5052412;28;20420;-77
2021/03/21 07:57:16;;;;;;;7.50;3.10;;;2.30;99.90;;;;;;5055581;28;20479;-75
2021/03/21 07:59:47;;;;;;;4.17;2.57;;;2.30;99.90;;;;;;5062119;28;20484;-76
2021/03/21 08:02:17;;;;;;;3.83;2.42;;;2.40;99.90;;;;;;5053355;28;20972;-69
2021/03/21 08:04:49;;;;;;;4.03;2.40;;;2.40;99.90;;;;;;5053428;28;20202;-69
2021/03/21 08:07:26;;;;;;;4.37;3.13;;;2.40;99.90;;;;;;5050128;28;20793;-71
2021/03/21 08:09:52;;;;;;;3.50;2.50;;;2.30;99.90;;;;;;5050484;28;20862;-71
2021/03/21 08:12:21;;;;;;;9.10;2.80;;;2.30;99.90;;;;;;5054335;28;20464;-70
2021/03/21 08:15:17;;;;;;;8.50;3.10;;;2.30;99.90;;;;;;5057589;28;20171;-72
2021/03/21 08:18:23;;;;;;;6.00;3.30;;;2.30;99.90;;;;;;5051373;28;20554;-70
2021/03/21 08:20:56;;;;;;;5.67;3.23;;;2.30;99.90;;;;;;5059969;28;20461;-73
2021/03/21 08:23:23;;;;;;;4.47;2.40;;;2.30;99.90;;;;;;5074930;28;20389;-73
2021/03/21 08:25:51;;;;;;;3.87;2.63;;;2.30;99.90;;;;;;5072408;28;20421;-73
2021/03/21 08:28:19;;;;;;;3.40;2.33;;;2.30;99.90;;;;;;5074431;28;20464;-72
2021/03/21 08:30:47;;;;;;;5.93;3.60;;;2.30;99.90;;;;;;5056149;28;20447;-73
2021/03/21 08:33:24;;;;;;;4.03;2.50;;;2.30;99.90;;;;;;5053633;28;20443;-72
2021/03/21 08:36:08;;;;;;;3.50;2.40;;;2.30;99.90;;;;;;5053168;28;20495;-72
2021/03/21 08:38:36;;;;;;;5.70;2.50;;;2.30;99.90;;;;;;5057274;28;20441;-75
2021/03/21 08:41:04;;;;;;;3.00;2.10;;;2.50;99.90;;;;;;5053014;28;20492;-73
2021/03/21 08:43:34;;;;;;;4.33;2.87;;;2.50;99.90;;;;;;5052448;28;20523;-74
2021/03/21 08:46:02;;;;;;;3.27;2.37;;;2.60;99.90;;;;;;5052068;28;20429;-74
2021/03/21 08:48:39;;;;;;;3.30;2.63;;;2.60;99.90;;;;;;5053866;28;20452;-74
2021/03/21 08:51:05;;;;;;;4.33;2.80;;;2.60;99.90;;;;;;5034798;28;20517;-74
2021/03/21 08:53:34;;;;;;;5.17;2.90;;;2.60;99.90;;;;;;5034329;28;20489;-74
2021/03/21 08:56:15;;;;;;;6.30;2.60;;;2.70;99.90;;;;;;5068831;28;20182;-76
2021/03/21 08:58:41;;;;;;;3.40;2.60;;;2.70;99.90;;;;;;5073634;28;20444;-74
2021/03/21 09:01:15;;;;;;;8.90;3.17;;;2.70;99.90;;;;;;5072168;28;20457;-75
2021/03/21 09:03:41;;;;;;;5.17;2.63;;;2.70;99.90;;;;;;5074325;28;20388;-75
2021/03/21 09:06:27;;;;;;;5.77;2.60;;;2.70;99.90;;;;;;5054421;28;20432;-75
2021/03/21 09:08:53;;;;;;;5.57;2.60;;;2.70;99.90;;;;;;5053626;28;20469;-74
2021/03/21 09:11:35;;;;;;;6.33;3.33;;;2.70;99.90;;;;;;5070875;28;20416;-74
2021/03/21 09:14:03;;;;;;;4.57;2.60;;;2.70;99.90;;;;;;5072167;28;20416;-72
2021/03/21 09:16:30;;;;;;;10.30;3.33;;;2.70;99.90;;;;;;5074010;28;20406;-75
2021/03/21 09:19:16;;;;;;;6.70;2.73;;;2.70;99.90;;;;;;5073085;28;20427;-72
2021/03/21 09:21:46;;;;;;;4.83;3.10;;;2.80;99.90;;;;;;5034249;28;20389;-74
2021/03/21 09:24:25;;;;;;;8.23;3.07;;;2.90;99.90;;;;;;5036493;28;20404;-73
2021/03/21 09:26:51;;;;;;;4.07;2.60;;;2.90;99.90;;;;;;5072713;28;20421;-74
2021/03/21 09:29:27;;;;;;;3.33;2.23;;;2.70;99.90;;;;;;5067852;28;20454;-72
2021/03/21 09:31:58;;;;;;;7.90;2.77;;;2.70;99.90;;;;;;5033924;28;20396;-73
2021/03/21 09:34:53;;;;;;;5.93;3.40;;;2.70;99.90;;;;;;5035615;28;20428;-72
2021/03/21 09:37:22;;;;;;;4.20;2.90;;;2.80;99.90;;;;;;5052877;28;20424;-73
2021/03/21 09:39:57;;;;;;;4.27;2.80;;;2.90;99.90;;;;;;5046848;28;20466;-72
2021/03/21 09:42:24;;;;;;;3.67;2.40;;;2.90;99.90;;;;;;5033348;28;20461;-72
2021/03/21 09:44:50;;;;;;;8.57;2.90;;;2.90;99.90;;;;;;5044556;28;20844;-72
2021/03/21 09:47:39;;;;;;;5.70;2.70;;;2.80;99.90;;;;;;5073160;28;20408;-71
2021/03/21 09:50:16;;;;;;;5.50;3.40;;;2.80;99.90;;;;;;5042343;28;20452;-72
2021/03/21 09:53:06;;;;;;;6.43;2.87;;;2.90;99.90;;;;;;5033367;28;20391;-73
2021/03/21 09:55:50;;;;;;;6.33;3.60;;;3.00;99.90;;;;;;5055064;28;20432;-73
2021/03/21 09:58:34;;;;;;;4.00;3.03;;;3.10;99.90;;;;;;5076134;28;20387;-72
2021/03/21 10:01:21;;;;;;;6.60;3.70;;;3.10;99.90;;;;;;5075103;28;20419;-72
2021/03/21 10:04:05;;;;;;;3.83;2.97;;;2.90;99.90;;;;;;5077337;28;20460;-72
2021/03/21 10:06:38;;;;;;;4.70;3.43;;;2.80;99.90;;;;;;5056390;28;20413;-73
2021/03/21 10:09:16;;;;;;;5.87;3.30;;;2.90;99.90;;;;;;5055744;28;20790;-74
2021/03/21 10:11:46;;;;;;;4.23;2.50;;;3.10;99.90;;;;;;5037059;28;20412;-74
2021/03/21 10:14:21;;;;;;;4.90;2.33;;;3.20;99.90;;;;;;5037644;28;20475;-74
2021/03/21 10:16:48;;;;;;;4.53;2.87;;;3.20;99.90;;;;;;5036786;28;20484;-72
2021/03/21 10:19:54;;;;;;;5.40;3.30;;;3.10;99.90;;;;;;5048618;28;20469;-73
2021/03/21 10:22:28;;;;;;;6.30;3.90;;;3.10;99.90;;;;;;5037034;28;20401;-73
2021/03/21 10:24:59;;;;;;;7.80;3.23;;;3.10;99.90;;;;;;5037094;28;20491;-74
2021/03/21 10:27:54;;;;;;;6.80;3.20;;;3.10;99.90;;;;;;5036618;28;20432;-73
2021/03/21 10:30:31;;;;;;;6.10;2.80;;;3.00;99.90;;;;;;5038923;28;20870;-74
2021/03/21 10:33:00;;;;;;;4.43;3.00;;;2.90;99.90;;;;;;5075271;28;20428;-74
2021/03/21 10:35:26;;;;;;;3.97;2.90;;;2.90;99.90;;;;;;5066334;28;20501;-72
2021/03/21 10:37:57;;;;;;;5.63;3.20;;;2.90;99.90;;;;;;5056506;28;20397;-72
2021/03/21 10:40:23;;;;;;;4.53;2.67;;;3.00;99.90;;;;;;5055921;28;20469;-74
2021/03/21 10:43:18;;;;;;;8.33;2.93;;;3.10;99.90;;;;;;5056376;28;20760;-72
2021/03/21 10:45:43;;;;;;;4.83;3.17;;;3.10;99.90;;;;;;5046714;28;20245;-74
2021/03/21 10:48:13;;;;;;;3.53;2.50;;;3.20;99.90;;;;;;5036512;28;20969;-73
2021/03/21 10:51:02;;;;;;;4.70;2.87;;;3.20;99.90;;;;;;5044583;28;20185;-74
2021/03/21 10:53:46;;;;;;;15.17;3.57;;;3.30;99.90;;;;;;5054916;28;20414;-74
2021/03/21 10:56:19;;;;;;;5.53;3.77;;;3.40;99.90;;;;;;5068057;28;20414;-74
2021/03/21 10:59:06;;;;;;;3.90;3.03;;;3.50;99.90;;;;;;5076318;28;20416;-74
2021/03/21 11:01:43;;;;;;;4.47;3.33;;;3.40;99.90;;;;;;5060237;28;20422;-74
2021/03/21 11:04:22;;;;;;;6.23;3.20;;;3.30;99.90;;;;;;5056243;28;20391;-73
2021/03/21 11:06:57;;;;;;;6.47;3.90;;;3.30;99.90;;;;;;5072055;28;20490;-72
2021/03/21 11:09:32;;;;;;;9.00;3.30;;;3.30;99.90;;;;;;5075009;28;21047;-73
2021/03/21 11:12:01;;;;;;;4.47;3.60;;;3.40;99.90;;;;;;5037608;28;20443;-74
2021/03/21 11:14:31;;;;;;;4.40;3.20;;;3.50;99.90;;;;;;5036233;28;20396;-74
2021/03/21 11:17:19;;;;;;;8.77;3.53;;;3.70;99.90;;;;;;5071451;28;20427;-74
2021/03/21 11:19:47;;;;;;;6.17;4.20;;;3.90;99.90;;;;;;5074869;28;20429;-74
2021/03/21 11:22:36;;;;;;;7.67;4.53;;;4.10;99.90;;;;;;5075659;28;20818;-73
2021/03/21 11:25:04;;;;;;;4.60;3.03;;;4.20;99.90;;;;;;5058295;28;20473;-73
2021/03/21 11:27:37;;;;;;;9.83;3.87;;;4.40;99.90;;;;;;5034532;28;20412;-73
2021/03/21 11:30:20;;;;;;;6.60;3.90;;;4.50;99.90;;;;;;5038217;28;20463;-73
2021/03/21 11:32:46;;;;;;;5.73;3.20;;;4.30;99.90;;;;;;5075799;28;20392;-73
2021/03/21 11:35:28;;;;;;;6.47;3.40;;;4.10;99.90;;;;;;5072330;28;20425;-73
2021/03/21 11:37:56;;;;;;;6.93;4.43;;;4.00;99.90;;;;;;5075702;28;20381;-73
2021/03/21 11:40:35;;;;;;;5.43;3.17;;;4.10;99.90;;;;;;5059093;23;20502;-73
2021/03/21 11:43:19;;;;;;;5.30;3.77;;;4.20;99.90;;;;;;5017456;28;20428;-73
2021/03/21 11:45:45;;;;;;;10.40;4.63;;;4.10;99.90;;;;;;5030570;28;20425;-72
2021/03/21 11:48:34;;;;;;;7.87;4.10;;;3.90;99.90;;;;;;5058025;28;20452;-73
2021/03/21 11:51:02;;;;;;;6.90;3.93;;;3.90;99.90;;;;;;5049528;28;20445;-73
2021/03/21 11:53:32;;;;;;;4.87;3.77;;;3.80;99.90;;;;;;5057903;28;20701;-73
2021/03/21 11:56:20;;;;;;;6.33;3.53;;;3.60;99.90;;;;;;5050656;28;20503;-73
2021/03/21 11:58:53;;;;;;;6.83;4.33;;;3.50;99.90;;;;;;5037502;28;20396;-73
2021/03/21 12:01:43;;;;;;;4.53;3.40;;;3.50;99.90;;;;;;5036366;28;20798;-73
2021/03/21 12:04:11;;;;;;;7.13;3.80;;;3.50;99.90;;;;;;5036927;28;20416;-72
2021/03/21 12:06:46;;;;;;;5.20;3.13;;;3.50;99.90;;;;;;5028448;28;20442;-73
2021/03/21 12:09:42;;;;;;;6.03;3.67;;;3.40;99.90;;;;;;5018145;28;20454;-73
2021/03/21 12:12:39;;;;;;;15.13;4.20;;;3.30;99.90;;;;;;5042368;28;20439;-73
2021/03/21 12:15:23;;;;;;;5.87;3.63;;;3.10;99.90;;;;;;5049473;28;20436;-73
2021/03/21 12:17:59;;;;;;;11.80;5.00;;;3.20;99.90;;;;;;5053842;28;20449;-73
2021/03/21 12:20:37;;;;;;;7.67;4.17;;;3.20;99.90;;;;;;5054094;28;20431;-73
2021/03/21 12:23:04;;;;;;;8.80;4.00;;;3.10;99.90;;;;;;5034065;28;20417;-73
2021/03/21 12:25:36;;;;;;;6.33;3.70;;;3.00;99.90;;;;;;5035439;28;20414;-74
2021/03/21 12:28:19;;;;;;;5.73;4.00;;;3.00;99.90;;;;;;5016668;28;20433;-73
2021/03/21 12:30:59;;;;;;;6.60;3.73;;;3.20;99.90;;;;;;5030499;28;20976;-73
2021/03/21 12:33:31;;;;;;;5.20;3.17;;;3.30;99.90;;;;;;5056095;28;20424;-75
2021/03/21 12:36:16;;;;;;;10.60;4.07;;;3.40;99.90;;;;;;5049956;28;20796;-73
2021/03/21 12:38:48;;;;;;;5.97;3.87;;;3.40;99.90;;;;;;5054081;28;20403;-73
2021/03/21 12:41:34;;;;;;;9.43;4.13;;;3.30;99.90;;;;;;5052025;28;20449;-73
2021/03/21 12:44:26;;;;;;;16.37;4.03;;;3.20;99.90;;;;;;5054043;28;20392;-73
2021/03/21 12:47:05;;;;;;;4.60;3.30;;;3.10;99.90;;;;;;5052268;28;20793;-73
2021/03/21 12:49:50;;;;;;;6.27;3.67;;;3.10;99.90;;;;;;5054091;28;20459;-73
2021/03/21 12:52:25;;;;;;;7.47;4.60;;;3.10;99.90;;;;;;5051914;28;20437;-73
2021/03/21 12:54:52;;;;;;;5.50;3.80;;;3.10;99.90;;;;;;5054034;28;20384;-73
2021/03/21 12:57:19;;;;;;;5.10;3.50;;;3.30;99.90;;;;;;5028494;28;20811;-73
2021/03/21 12:59:49;;;;;;;6.03;4.17;;;3.20;99.90;;;;;;5032680;28;20459;-73
2021/03/21 13:02:17;;;;;;;7.50;4.23;;;3.20;99.90;;;;;;5053786;28;20416;-73
2021/03/21 13:04:43;;;;;;;9.97;4.13;;;3.30;99.90;;;;;;5039829;28;20446;-73
2021/03/21 13:07:11;;;;;;;5.83;4.17;;;3.30;99.90;;;;;;5053668;28;20406;-73
2021/03/21 13:09:38;;;;;;;7.73;5.30;;;3.30;99.90;;;;;;5043030;28;20217;-72
2021/03/21 13:12:04;;;;;;;7.20;4.97;;;3.20;99.90;;;;;;5034063;28;20436;-73
2021/03/21 13:14:29;;;;;;;8.30;5.03;;;3.00;99.90;;;;;;5032580;28;20438;-73
2021/03/21 13:16:55;;;;;;;11.40;5.57;;;3.00;99.90;;;;;;5033577;28;20413;-72
2021/03/21 13:19:21;;;;;;;9.03;5.57;;;3.00;99.90;;;;;;5037912;28;20661;-73
2021/03/21 13:21:48;;;;;;;8.43;4.73;;;3.10;99.90;;;;;;5053786;28;20255;-72
2021/03/21 13:24:14;;;;;;;6.93;4.70;;;3.10;99.90;;;;;;5051676;28;20175;-73
2021/03/21 13:26:40;;;;;;;10.60;5.00;;;3.10;99.90;;;;;;5053350;28;20449;-73
2021/03/21 13:29:06;;;;;;;7.13;4.90;;;3.10;99.90;;;;;;5039139;28;20554;-73
2021/03/21 13:31:32;;;;;;;11.40;5.77;;;3.10;99.90;;;;;;5053038;28;20634;-73
2021/03/21 13:33:57;;;;;;;11.27;5.23;;;3.10;99.90;;;;;;5049709;28;20171;-73
2021/03/21 13:36:23;;;;;;;8.07;4.60;;;3.10;99.90;;;;;;5033430;28;20163;-73
2021/03/21 13:38:49;;;;;;;11.23;5.23;;;3.30;99.90;;;;;;5033484;28;20183;-74
2021/03/21 13:41:15;;;;;;;8.73;5.97;;;3.30;99.90;;;;;;5053507;28;21019;-73